Time;durP1;ratioP1;P1;durP2;ratioP2;P2;SDS_P1;SDS_P2;PMS_P1;PMS_P2;Temp;Humidity;BMP_temperature;BMP_pressure;BME280_temperature;BME280_humidity;BME280_pressure;Samples;Min_cycle;Max_cycle;Signal;HPM_P1;HPM_P2
2022/10/11 00:00:39;;;;;;;;;;;;;;;;;;4919717;29;19926;-84
2022/10/11 00:03:04;;;;;;;;;;;;;;;;;;4928075;29;19919;-85
2022/10/11 00:05:30;;;;;;;;;;;;;;;;;;4926229;29;20397;-83
2022/10/11 00:07:55;;;;;;;;;;;;;;;;;;4921897;29;19922;-84
2022/10/11 00:10:21;;;;;;;;;;;;;;;;;;4932041;29;20286;-81
2022/10/11 00:12:46;;;;;;;;;;;;;;;;;;4917919;29;19950;-80
2022/10/11 00:15:11;;;;;;;;;;;;;;;;;;4935782;29;19922;-80
2022/10/11 00:17:37;;;;;;;;;;;;;;;;;;4918778;29;19915;-81
2022/10/11 00:20:02;;;;;;;;;;;;;;;;;;4918947;29;19914;-83
2022/10/11 00:22:27;;;;;;;;;;;;;;;;;;4935333;29;20339;-82
2022/10/11 00:24:53;;;;;;;;;;;;;;;;;;4934949;29;20334;-81
2022/10/11 00:27:18;;;;;;;;;;;;;;;;;;4908689;29;19937;-83
2022/10/11 00:29:43;;;;;;;;;;;;;;;;;;4922056;29;19983;-84
2022/10/11 00:32:09;;;;;;;;;;;;;;;;;;4899433;29;19919;-82
2022/10/11 00:34:34;;;;;;;;;;;;;;;;;;4915980;29;19942;-85
2022/10/11 00:36:59;;;;;;;;;;;;;;;;;;4899258;29;20389;-82
2022/10/11 00:39:25;;;;;;;;;;;;;;;;;;4919326;29;20295;-82
2022/10/11 00:41:50;;;;;;;;;;;;;;;;;;4929118;29;19914;-84
2022/10/11 00:44:15;;;;;;;;;;;;;;;;;;4943209;29;20006;-82
2022/10/11 00:46:41;;;;;;;;;;;;;;;;;;4926629;29;19938;-82
2022/10/11 00:49:06;;;;;;;;;;;;;;;;;;4926565;29;19925;-85
2022/10/11 00:51:31;;;;;;;;;;;;;;;;;;4943693;29;19915;-83
2022/10/11 00:53:57;;;;;;;;;;;;;;;;;;4943327;29;19919;-82
2022/10/11 00:56:22;;;;;;;;;;;;;;;;;;4940006;29;19918;-82
2022/10/11 00:58:47;;;;;;;;;;;;;;;;;;4908947;29;19915;-79
2022/10/11 01:01:13;;;;;;;;;;;;;;;;;;4871985;29;19915;-82
2022/10/11 01:03:38;;;;;;;;;;;;;;;;;;4919185;29;19915;-80
2022/10/11 01:06:04;;;;;;;;;;;;;;;;;;4919462;29;19915;-83
2022/10/11 01:08:29;;;;;;;;;;;;;;;;;;4902642;29;19915;-82
2022/10/11 01:10:54;;;;;;;;;;;;;;;;;;4902432;29;20232;-84
2022/10/11 01:13:21;;;;;;;;;;;;;;;;;;4918663;29;19926;-82
2022/10/11 01:15:46;;;;;;;;;;;;;;;;;;4933831;29;19915;-82
2022/10/11 01:18:12;;;;;;;;;;;;;;;;;;4921239;29;19915;-83
2022/10/11 01:20:37;;;;;;;;;;;;;;;;;;4938126;29;20377;-83
2022/10/11 01:23:02;;;;;;;;;;;;;;;;;;4920823;29;19922;-82
2022/10/11 01:25:28;;;;;;;;;;;;;;;;;;4921117;29;19946;-80
2022/10/11 01:27:53;;;;;;;;;;;;;;;;;;4921041;29;19921;-83
2022/10/11 01:30:18;;;;;;;;;;;;;;;;;;4919498;29;19919;-82
2022/10/11 01:32:44;;;;;;;;;;;;;;;;;;4921890;29;20470;-80
2022/10/11 01:35:09;;;;;;;;;;;;;;;;;;4918924;29;19962;-83
2022/10/11 01:37:34;;;;;;;;;;;;;;;;;;4918953;29;19919;-82
2022/10/11 01:40:00;;;;;;;;;;;;;;;;;;4918776;29;19919;-83
2022/10/11 01:42:25;;;;;;;;;;;;;;;;;;4901225;29;19915;-83
2022/10/11 01:44:50;;;;;;;;;;;;;;;;;;4918760;29;19922;-83
2022/10/11 01:47:16;;;;;;;;;;;;;;;;;;4918680;29;20302;-84
2022/10/11 01:49:41;;;;;;;;;;;;;;;;;;4926150;29;19950;-80
2022/10/11 01:52:06;;;;;;;;;;;;;;;;;;4938117;29;19918;-84
2022/10/11 01:54:32;;;;;;;;;;;;;;;;;;4937162;29;20326;-84
2022/10/11 01:56:57;;;;;;;;;;;;;;;;;;4937569;29;20355;-83
2022/10/11 01:59:22;;;;;;;;;;;;;;;;;;4920555;29;19915;-83
2022/10/11 02:01:48;;;;;;;;;;;;;;;;;;4920578;29;20276;-84
2022/10/11 02:04:13;;;;;;;;;;;;;;;;;;4937129;29;20006;-84
2022/10/11 02:06:38;;;;;;;;;;;;;;;;;;4944313;23;19934;-76
2022/10/11 02:09:04;;;;;;;;;;;;;;;;;;4904334;29;19915;-76
2022/10/11 02:11:30;;;;;;;;;;;;;;;;;;4920348;29;20294;-76
2022/10/11 02:13:55;;;;;;;;;;;;;;;;;;4936715;29;20390;-77
2022/10/11 02:16:21;;;;;;;;;;;;;;;;;;4936750;29;20298;-76
2022/10/11 02:18:46;;;;;;;;;;;;;;;;;;4937038;29;19922;-76
2022/10/11 02:21:11;;;;;;;;;;;;;;;;;;4935897;29;19915;-77
2022/10/11 02:23:37;;;;;;;;;;;;;;;;;;4916059;29;19914;-77
2022/10/11 02:26:02;;;;;;;;;;;;;;;;;;4920027;29;19915;-76
2022/10/11 02:28:28;;;;;;;;;;;;;;;;;;4904403;29;20009;-77
2022/10/11 02:30:53;;;;;;;;;;;;;;;;;;4935694;29;19919;-78
2022/10/11 02:33:18;;;;;;;;;;;;;;;;;;4903418;29;19930;-76
2022/10/11 02:35:44;;;;;;;;;;;;;;;;;;4936569;29;19922;-76
2022/10/11 02:38:09;;;;;;;;;;;;;;;;;;4936606;29;20029;-78
2022/10/11 02:40:35;;;;;;;;;;;;;;;;;;4914935;29;19921;-77
2022/10/11 02:43:00;;;;;;;;;;;;;;;;;;4906497;29;19925;-77
2022/10/11 02:45:25;;;;;;;;;;;;;;;;;;4917542;29;19998;-76
2022/10/11 02:47:51;;;;;;;;;;;;;;;;;;4900590;29;19915;-76
2022/10/11 02:50:16;;;;;;;;;;;;;;;;;;4900587;29;20410;-77
2022/10/11 02:52:41;;;;;;;;;;;;;;;;;;4916901;29;20268;-76
2022/10/11 02:55:07;;;;;;;;;;;;;;;;;;4900736;29;19915;-77
2022/10/11 02:57:32;;;;;;;;;;;;;;;;;;4916207;29;20010;-76
2022/10/11 02:59:58;;;;;;;;;;;;;;;;;;4908716;29;19915;-77
2022/10/11 03:02:23;;;;;;;;;;;;;;;;;;4934646;29;19919;-76
2022/10/11 03:04:49;;;;;;;;;;;;;;;;;;4936029;29;19926;-79
2022/10/11 03:07:14;;;;;;;;;;;;;;;;;;4934816;29;19919;-77
2022/10/11 03:09:39;;;;;;;;;;;;;;;;;;4919205;29;19965;-77
2022/10/11 03:12:05;;;;;;;;;;;;;;;;;;4903402;29;19977;-78
2022/10/11 03:14:30;;;;;;;;;;;;;;;;;;4933937;29;19919;-78
2022/10/11 03:16:56;;;;;;;;;;;;;;;;;;4918854;29;20392;-76
2022/10/11 03:19:21;;;;;;;;;;;;;;;;;;4884862;29;20335;-75
2022/10/11 03:21:47;;;;;;;;;;;;;;;;;;4900124;29;20382;-77
2022/10/11 03:24:12;;;;;;;;;;;;;;;;;;4900025;29;20084;-80
2022/10/11 03:26:37;;;;;;;;;;;;;;;;;;4915750;29;20401;-78
2022/10/11 03:29:03;;;;;;;;;;;;;;;;;;4916730;29;20291;-77
2022/10/11 03:31:28;;;;;;;;;;;;;;;;;;4915760;29;19915;-77
2022/10/11 03:33:54;;;;;;;;;;;;;;;;;;4910189;29;19922;-77
2022/10/11 03:36:19;;;;;;;;;;;;;;;;;;4934275;29;19915;-77
2022/10/11 03:38:45;;;;;;;;;;;;;;;;;;4935523;29;20382;-76
2022/10/11 03:41:10;;;;;;;;;;;;;;;;;;4918557;29;20413;-77
2022/10/11 03:43:35;;;;;;;;;;;;;;;;;;4918192;29;19922;-77
2022/10/11 03:46:01;;;;;;;;;;;;;;;;;;4935438;29;20374;-77
2022/10/11 03:48:26;;;;;;;;;;;;;;;;;;4935484;29;19915;-78
2022/10/11 03:50:52;;;;;;;;;;;;;;;;;;4930580;29;20363;-77
2022/10/11 03:53:17;;;;;;;;;;;;;;;;;;4935175;29;19919;-76
2022/10/11 03:55:43;;;;;;;;;;;;;;;;;;4918536;29;19919;-76
2022/10/11 03:58:08;;;;;;;;;;;;;;;;;;4934097;29;19915;-78
2022/10/11 04:00:33;;;;;;;;;;;;;;;;;;4935744;29;20318;-77
2022/10/11 04:02:59;;;;;;;;;;;;;;;;;;4918381;29;19915;-78
2022/10/11 04:05:24;;;;;;;;;;;;;;;;;;4918114;29;19918;-79
2022/10/11 04:07:50;;;;;;;;;;;;;;;;;;4900546;29;19915;-76
2022/10/11 04:10:15;;;;;;;;;;;;;;;;;;4916087;29;19950;-77
2022/10/11 04:12:40;;;;;;;;;;;;;;;;;;4898546;29;19925;-77
2022/10/11 04:15:06;;;;;;;;;;;;;;;;;;4899175;29;19959;-78
2022/10/11 04:17:31;;;;;;;;;;;;;;;;;;4916354;29;19922;-77
2022/10/11 04:19:57;;;;;;;;;;;;;;;;;;4899419;29;19962;-77
2022/10/11 04:22:22;;;;;;;;;;;;;;;;;;4883829;29;19925;-77
2022/10/11 04:24:47;;;;;;;;;;;;;;;;;;4918227;29;19915;-80
2022/10/11 04:27:13;;;;;;;;;;;;;;;;;;4916669;29;19919;-80
2022/10/11 04:29:38;;;;;;;;;;;;;;;;;;4915235;29;19923;-78
2022/10/11 04:32:04;;;;;;;;;;;;;;;;;;4917130;29;20009;-79
2022/10/11 04:34:30;;;;;;;;;;;;;;;;;;4899067;29;20387;-78
2022/10/11 04:36:55;;;;;;;;;;;;;;;;;;4884322;29;20004;-76
2022/10/11 04:39:21;;;;;;;;;;;;;;;;;;4899614;29;19958;-77
2022/10/11 04:41:46;;;;;;;;;;;;;;;;;;4901033;29;20018;-77
2022/10/11 04:44:12;;;;;;;;;;;;;;;;;;4934791;29;20295;-78
2022/10/11 04:46:37;;;;;;;;;;;;;;;;;;4935307;29;19915;-76
2022/10/11 04:49:03;;;;;;;;;;;;;;;;;;4918013;29;19919;-76
2022/10/11 04:51:29;;;;;;;;;;;;;;;;;;4933922;29;19914;-77
2022/10/11 04:53:54;;;;;;;;;;;;;;;;;;4917660;29;20009;-79
2022/10/11 04:56:20;;;;;;;;;;;;;;;;;;4897594;29;20016;-78
2022/10/11 04:58:52;;;;;;;;;;;;;;;;;;4918134;29;19922;-77
2022/10/11 05:01:18;;;;;;;;;;;;;;;;;;4917962;29;19915;-78
2022/10/11 05:03:43;;;;;;;;;;;;;;;;;;4917867;29;19926;-77
2022/10/11 05:06:09;;;;;;;;;;;;;;;;;;4917809;29;20342;-78
2022/10/11 05:08:34;;;;;;;;;;;;;;;;;;4934366;29;19966;-78
2022/10/11 05:11:00;;;;;;;;;;;;;;;;;;4902537;29;20013;-78
2022/10/11 05:13:25;;;;;;;;;;;;;;;;;;4917681;29;20369;-79
2022/10/11 05:15:50;;;;;;;;;;;;;;;;;;4929036;29;19915;-76
2022/10/11 05:18:16;;;;;;;;;;;;;;;;;;4934842;29;19915;-78
2022/10/11 05:20:41;;;;;;;;;;;;;;;;;;4901583;29;19919;-78
2022/10/11 05:23:07;;;;;;;;;;;;;;;;;;4901511;29;19925;-79
2022/10/11 05:25:32;;;;;;;;;;;;;;;;;;4934414;29;19919;-79
2022/10/11 05:27:58;;;;;;;;;;;;;;;;;;4920440;29;19915;-78
2022/10/11 05:30:23;;;;;;;;;;;;;;;;;;4905342;29;19919;-78
2022/10/11 05:32:49;;;;;;;;;;;;;;;;;;4915652;29;19915;-78
2022/10/11 05:35:14;;;;;;;;;;;;;;;;;;4904940;29;19919;-77
2022/10/11 05:37:40;;;;;;;;;;;;;;;;;;4920782;29;19922;-77
2022/10/11 05:40:05;;;;;;;;;;;;;;;;;;4920441;29;19919;-77
2022/10/11 05:42:31;;;;;;;;;;;;;;;;;;4935817;29;19910;-78
2022/10/11 05:44:56;;;;;;;;;;;;;;;;;;4920375;29;19981;-79
2022/10/11 05:47:22;;;;;;;;;;;;;;;;;;4918317;29;19923;-78
2022/10/11 05:49:47;;;;;;;;;;;;;;;;;;4934929;29;19915;-78
2022/10/11 05:52:18;;;;;;;;;;;;;;;;;;4920273;29;19914;-78
2022/10/11 05:54:43;;;;;;;;;;;;;;;;;;4936846;29;19923;-77
2022/10/11 05:57:09;;;;;;;;;;;;;;;;;;4937309;29;19915;-78
2022/10/11 05:59:34;;;;;;;;;;;;;;;;;;4904845;29;20397;-78
2022/10/11 06:02:00;;;;;;;;;;;;;;;;;;4920411;29;20033;-78
2022/10/11 06:04:25;;;;;;;;;;;;;;;;;;4919785;29;19918;-77
2022/10/11 06:06:51;;;;;;;;;;;;;;;;;;4915492;29;20002;-77
2022/10/11 06:09:16;;;;;;;;;;;;;;;;;;4937364;29;20322;-77
2022/10/11 06:11:42;;;;;;;;;;;;;;;;;;4908037;29;19915;-77
2022/10/11 06:14:08;;;;;;;;;;;;;;;;;;4906948;29;19918;-77
2022/10/11 06:16:33;;;;;;;;;;;;;;;;;;4942324;29;20425;-78
2022/10/11 06:18:59;;;;;;;;;;;;;;;;;;4937797;29;20332;-77
2022/10/11 06:21:24;;;;;;;;;;;;;;;;;;4938116;29;20313;-77
2022/10/11 06:23:50;;;;;;;;;;;;;;;;;;4920853;29;19915;-77
2022/10/11 06:26:15;;;;;;;;;;;;;;;;;;4916549;29;19922;-77
2022/10/11 06:28:41;;;;;;;;;;;;;;;;;;4921442;29;19922;-80
2022/10/11 06:31:07;;;;;;;;;;;;;;;;;;4920840;29;19922;-77
2022/10/11 06:33:32;;;;;;;;;;;;;;;;;;4936549;29;20354;-77
2022/10/11 06:35:58;;;;;;;;;;;;;;;;;;4903419;29;19970;-78
2022/10/11 06:38:23;;;;;;;;;;;;;;;;;;4935404;29;19919;-75
2022/10/11 06:40:49;;;;;;;;;;;;;;;;;;4919396;29;19915;-76
2022/10/11 06:43:15;;;;;;;;;;;;;;;;;;4914185;29;19954;-78
2022/10/11 06:45:40;;;;;;;;;;;;;;;;;;4919327;29;20300;-77
2022/10/11 06:48:06;;;;;;;;;;;;;;;;;;4919513;29;19915;-77
2022/10/11 06:50:31;;;;;;;;;;;;;;;;;;4919227;29;19915;-76
2022/10/11 06:52:57;;;;;;;;;;;;;;;;;;4918605;29;19922;-78
2022/10/11 06:55:22;;;;;;;;;;;;;;;;;;4918985;29;19933;-77
2022/10/11 06:57:47;;;;;;;;;;;;;;;;;;4936034;29;19915;-76
2022/10/11 07:00:13;;;;;;;;;;;;;;;;;;4933934;29;19926;-77
2022/10/11 07:02:39;;;;;;;;;;;;;;;;;;4899838;29;20375;-76
2022/10/11 07:05:04;;;;;;;;;;;;;;;;;;4900212;29;20521;-77
2022/10/11 07:07:30;;;;;;;;;;;;;;;;;;4915748;29;19916;-77
2022/10/11 07:09:55;;;;;;;;;;;;;;;;;;4915865;29;20010;-77
2022/10/11 07:12:21;;;;;;;;;;;;;;;;;;4899966;29;19915;-76
2022/10/11 07:14:47;;;;;;;;;;;;;;;;;;4899249;29;19942;-78
2022/10/11 07:17:12;;;;;;;;;;;;;;;;;;4915047;29;20267;-77
2022/10/11 07:19:37;;;;;;;;;;;;;;;;;;4933388;29;20408;-76
2022/10/11 07:22:34;;;;;;;;;;;;;;;;;;5110055;27;19962;-76
2022/10/11 07:25:35;;;;;;;;;;;;;;;;;;5113968;27;19970;-76
2022/10/11 07:28:30;;;;;;;;;;;;;;;;;;5151326;27;19949;-78
2022/10/11 07:31:24;;;;;;;;;;;;;;;;;;5150508;27;20409;-76
2022/10/11 07:34:15;;;;;;;;;;;;;;;;;;5105205;27;19955;-77
2022/10/11 07:37:25;;;;;;;;;;;;;;;;;;5029041;27;19955;-75
2022/10/11 07:40:31;;;;;;;;;;;;;;;;;;5028954;27;19949;-76
2022/10/11 07:43:22;;;;;;;;;;;;;;;;;;5109589;27;19947;-75
2022/10/11 07:46:12;;;;;;;;;;;;;;;;;;5049885;28;19957;-78
2022/10/11 07:49:09;;;;;;;;;;;;;;;;;;5151016;27;20412;-75
2022/10/11 07:52:08;;;;;;;;;;;;;;;;;;5133972;27;19947;-78
2022/10/11 07:55:00;;;;;;;;;;;;;;;;;;5109994;27;20409;-77
2022/10/11 07:58:08;;;;;;;;;;;;;;;;;;5150872;27;20044;-76
2022/10/11 08:00:58;;;;;;;;;;;;;;;;;;5090514;27;19956;-76
2022/10/11 08:03:58;;;;;;;;;;;;;;;;;;5089701;27;19959;-77
2022/10/11 08:06:50;;;;;;;;;;;;;;;;;;5086801;22;19996;-80
2022/10/11 08:09:52;;;;;;;;;;;;;;;;;;5014813;27;19968;-77
2022/10/11 08:12:43;;;;;;;;;;;;;;;;;;5105025;27;19959;-76
2022/10/11 08:15:49;;;;;;;;;;;;;;;;;;5019869;27;19949;-78
2022/10/11 08:18:43;;;;;;;;;;;;;;;;;;5183038;27;19960;-77
2022/10/11 08:21:36;;;;;;;;;;;;;;;;;;5107864;27;19960;-78
2022/10/11 08:24:46;;;;;;;;;;;;;;;;;;5127569;27;19958;-81
2022/10/11 08:27:36;;;;;;;;;;;;;;;;;;5109989;27;19943;-79
2022/10/11 08:30:30;;;;;;;;;;;;;;;;;;5094148;27;19951;-80
2022/10/11 08:33:22;;;;;;;;;;;;;;;;;;5109545;27;19948;-77
2022/10/11 08:36:13;;;;;;;;;;;;;;;;;;5109700;27;19962;-79
2022/10/11 08:39:07;;;;;;;;;;;;;;;;;;5150780;27;19965;-78
2022/10/11 08:42:04;;;;;;;;;;;;;;;;;;5151129;27;19962;-78
2022/10/11 08:44:57;;;;;;;;;;;;;;;;;;5149779;27;19959;-81
2022/10/11 08:47:51;;;;;;;;;;;;;;;;;;5150846;27;19950;-80
2022/10/11 08:50:42;;;;;;;;;;;;;;;;;;5110251;27;19947;-78
2022/10/11 08:53:33;;;;;;;;;;;;;;;;;;5109952;27;19947;-76
2022/10/11 08:56:24;;;;;;;;;;;;;;;;;;5110020;27;19947;-77
2022/10/11 08:59:15;;;;;;;;;;;;;;;;;;5112349;27;19958;-79
2022/10/11 09:01:58;;;;;;;;;;;;;;;;;;5087362;28;20395;-77
2022/10/11 09:04:35;;;;;;;;;;;;;;;;;;5096347;27;19947;-77
2022/10/11 09:07:12;;;;;;;;;;;;;;;;;;5098632;27;19940;-77
2022/10/11 09:09:57;;;;;;;;;;;;;;;;;;5085901;28;20383;-81
2022/10/11 09:12:35;;;;;;;;;;;;;;;;;;5096499;27;19986;-79
2022/10/11 09:15:11;;;;;;;;;;;;;;;;;;5101774;27;19951;-79
2022/10/11 09:17:50;;;;;;;;;;;;;;;;;;5147230;27;19943;-77
2022/10/11 09:20:26;;;;;;;;;;;;;;;;;;5107588;27;20396;-78
2022/10/11 09:23:03;;;;;;;;;;;;;;;;;;5100421;27;19939;-78
2022/10/11 09:25:29;;;;;;;;;;;;;;;;;;5094216;28;19971;-80
2022/10/11 09:27:55;;;;;;;;;;;;;;;;;;5088089;28;19981;-81
2022/10/11 09:30:20;;;;;;;;;;;;;;;;;;5093285;28;19912;-81
2022/10/11 09:32:45;;;;;;;;;;;;;;;;;;5100485;28;20275;-79
2022/10/11 09:35:11;;;;;;;;;;;;;;;;;;5100221;28;20395;-81
2022/10/11 09:37:36;;;;;;;;;;;;;;;;;;5093423;28;19919;-80
2022/10/11 09:40:02;;;;;;;;;;;;;;;;;;5106085;28;20333;-80
2022/10/11 09:42:28;;;;;;;;;;;;;;;;;;5093665;28;20401;-80
2022/10/11 09:44:54;;;;;;;;;;;;;;;;;;5097946;28;19913;-79
2022/10/11 09:47:19;;;;;;;;;;;;;;;;;;5103174;28;19912;-80
2022/10/11 09:49:45;;;;;;;;;;;;;;;;;;5092645;28;19938;-80
2022/10/11 09:52:10;;;;;;;;;;;;;;;;;;5103912;28;20030;-80
2022/10/11 09:54:35;;;;;;;;;;;;;;;;;;5095857;28;20342;-81
2022/10/11 09:57:01;;;;;;;;;;;;;;;;;;5098117;28;20404;-81
2022/10/11 09:59:26;;;;;;;;;;;;;;;;;;5102408;28;19995;-80
2022/10/11 10:01:52;;;;;;;;;;;;;;;;;;5090718;28;20298;-80
2022/10/11 10:04:17;;;;;;;;;;;;;;;;;;5103889;28;20334;-80
2022/10/11 10:06:43;;;;;;;;;;;;;;;;;;5079142;28;20371;-79
2022/10/11 10:09:08;;;;;;;;;;;;;;;;;;5097007;28;19916;-77
2022/10/11 10:11:33;;;;;;;;;;;;;;;;;;5103034;28;20449;-77
2022/10/11 10:13:59;;;;;;;;;;;;;;;;;;5091412;28;19912;-77
2022/10/11 10:16:24;;;;;;;;;;;;;;;;;;5102973;28;20007;-77
2022/10/11 10:18:50;;;;;;;;;;;;;;;;;;5096582;28;20291;-77
2022/10/11 10:21:15;;;;;;;;;;;;;;;;;;5077468;28;19924;-77
2022/10/11 10:23:40;;;;;;;;;;;;;;;;;;5104791;28;20003;-82
2022/10/11 10:26:06;;;;;;;;;;;;;;;;;;5095348;28;19961;-83
2022/10/11 10:28:32;;;;;;;;;;;;;;;;;;5071932;28;19998;-82
2022/10/11 10:30:57;;;;;;;;;;;;;;;;;;5099799;28;20279;-77
2022/10/11 10:33:23;;;;;;;;;;;;;;;;;;5085916;28;19926;-77
2022/10/11 10:35:48;;;;;;;;;;;;;;;;;;5090932;28;19940;-77
2022/10/11 10:38:14;;;;;;;;;;;;;;;;;;5044534;28;19912;-75
2022/10/11 10:40:39;;;;;;;;;;;;;;;;;;5079549;28;20357;-76
2022/10/11 10:43:04;;;;;;;;;;;;;;;;;;5073785;28;19931;-78
2022/10/11 10:45:30;;;;;;;;;;;;;;;;;;5083081;28;20332;-78
2022/10/11 10:47:55;;;;;;;;;;;;;;;;;;5050025;28;19919;-77
2022/10/11 10:50:20;;;;;;;;;;;;;;;;;;5089375;28;19913;-80
2022/10/11 10:52:46;;;;;;;;;;;;;;;;;;5083413;28;19913;-77
2022/10/11 10:55:11;;;;;;;;;;;;;;;;;;5082533;28;20392;-79
2022/10/11 10:57:37;;;;;;;;;;;;;;;;;;5089059;28;20028;-77
2022/10/11 11:00:02;;;;;;;;;;;;;;;;;;5073119;28;20606;-77
2022/10/11 11:02:27;;;;;;;;;;;;;;;;;;5078467;28;19912;-77
2022/10/11 11:04:53;;;;;;;;;;;;;;;;;;5082208;28;20037;-77
2022/10/11 11:07:18;;;;;;;;;;;;;;;;;;5080447;28;19920;-76
2022/10/11 11:09:44;;;;;;;;;;;;;;;;;;5077551;28;20290;-77
2022/10/11 11:12:09;;;;;;;;;;;;;;;;;;5089393;28;20364;-76
2022/10/11 11:14:34;;;;;;;;;;;;;;;;;;5080506;28;19923;-77
2022/10/11 11:17:00;;;;;;;;;;;;;;;;;;5082773;28;19924;-77
2022/10/11 11:19:25;;;;;;;;;;;;;;;;;;5081129;28;20383;-77
2022/10/11 11:21:50;;;;;;;;;;;;;;;;;;5059823;28;19939;-77
2022/10/11 11:24:16;;;;;;;;;;;;;;;;;;5061281;28;19943;-77
2022/10/11 11:26:41;;;;;;;;;;;;;;;;;;5077963;28;19924;-76
2022/10/11 11:29:07;;;;;;;;;;;;;;;;;;5059381;28;20430;-76
2022/10/11 11:31:32;;;;;;;;;;;;;;;;;;5077323;28;20288;-76
2022/10/11 11:33:58;;;;;;;;;;;;;;;;;;5090196;28;19912;-77
2022/10/11 11:36:23;;;;;;;;;;;;;;;;;;5079653;28;20295;-77
2022/10/11 11:38:49;;;;;;;;;;;;;;;;;;5076246;28;20376;-77
2022/10/11 11:41:14;;;;;;;;;;;;;;;;;;5078680;28;19963;-76
2022/10/11 11:43:39;;;;;;;;;;;;;;;;;;5075474;28;20263;-78
2022/10/11 11:46:08;;;;;;;;;;;;;;;;;;5070456;28;20040;-78
2022/10/11 11:48:33;;;;;;;;;;;;;;;;;;5079107;28;19934;-76
2022/10/11 11:50:59;;;;;;;;;;;;;;;;;;5081757;28;20375;-77
2022/10/11 11:53:24;;;;;;;;;;;;;;;;;;5086003;28;20220;-77
2022/10/11 11:55:50;;;;;;;;;;;;;;;;;;5076435;28;20433;-77
2022/10/11 11:58:16;;;;;;;;;;;;;;;;;;5088469;28;19919;-78
2022/10/11 12:00:41;;;;;;;;;;;;;;;;;;5080156;28;20291;-78
2022/10/11 12:03:06;;;;;;;;;;;;;;;;;;5079909;28;19914;-77
2022/10/11 12:05:32;;;;;;;;;;;;;;;;;;5088013;28;20415;-78
2022/10/11 12:07:57;;;;;;;;;;;;;;;;;;5071819;28;19912;-78
2022/10/11 12:10:23;;;;;;;;;;;;;;;;;;5077358;28;19921;-78
2022/10/11 12:12:48;;;;;;;;;;;;;;;;;;5083466;28;19927;-77
2022/10/11 12:15:13;;;;;;;;;;;;;;;;;;5083800;28;19981;-79
2022/10/11 12:17:39;;;;;;;;;;;;;;;;;;5076352;28;19913;-77
2022/10/11 12:20:04;;;;;;;;;;;;;;;;;;5089071;28;19920;-78
2022/10/11 12:22:30;;;;;;;;;;;;;;;;;;5078284;28;19916;-77
2022/10/11 12:24:55;;;;;;;;;;;;;;;;;;5080703;28;20379;-77
2022/10/11 12:27:21;;;;;;;;;;;;;;;;;;5084842;28;20398;-75
2022/10/11 12:29:46;;;;;;;;;;;;;;;;;;5075755;28;19913;-83
2022/10/11 12:32:13;;;;;;;;;;;;;;;;;;5070812;28;20397;-77
2022/10/11 12:34:39;;;;;;;;;;;;;;;;;;5078406;28;19930;-76
2022/10/11 12:37:04;;;;;;;;;;;;;;;;;;5080814;28;20003;-77
2022/10/11 12:39:29;;;;;;;;;;;;;;;;;;5086505;28;19912;-77
2022/10/11 12:41:55;;;;;;;;;;;;;;;;;;5075314;28;20344;-78
2022/10/11 12:44:21;;;;;;;;;;;;;;;;;;5051574;28;20344;-77
2022/10/11 12:46:46;;;;;;;;;;;;;;;;;;5075187;28;20011;-78
2022/10/11 12:49:11;;;;;;;;;;;;;;;;;;5054751;28;20109;-79
2022/10/11 12:51:37;;;;;;;;;;;;;;;;;;5081270;28;20247;-78
2022/10/11 12:54:02;;;;;;;;;;;;;;;;;;5054428;28;19932;-78
2022/10/11 12:56:28;;;;;;;;;;;;;;;;;;5087359;28;20324;-77
2022/10/11 12:58:53;;;;;;;;;;;;;;;;;;5080124;28;19915;-79
2022/10/11 13:01:18;;;;;;;;;;;;;;;;;;5079927;28;20011;-79
2022/10/11 13:03:44;;;;;;;;;;;;;;;;;;5087085;28;19916;-79
2022/10/11 13:06:09;;;;;;;;;;;;;;;;;;5058806;28;19913;-79
2022/10/11 13:08:35;;;;;;;;;;;;;;;;;;5075988;28;19916;-78
2022/10/11 13:11:00;;;;;;;;;;;;;;;;;;5082788;28;19912;-78
2022/10/11 13:13:25;;;;;;;;;;;;;;;;;;5077915;28;19924;-78
2022/10/11 13:15:53;;;;;;;;;;;;;;;;;;5088177;28;19912;-79
2022/10/11 13:18:18;;;;;;;;;;;;;;;;;;5073937;28;19923;-78
2022/10/11 13:20:44;;;;;;;;;;;;;;;;;;5085312;28;19920;-79
2022/10/11 13:23:09;;;;;;;;;;;;;;;;;;5080062;28;19927;-77
2022/10/11 13:25:34;;;;;;;;;;;;;;;;;;5078169;28;19946;-79
2022/10/11 13:28:00;;;;;;;;;;;;;;;;;;5087788;28;19912;-77
2022/10/11 13:30:26;;;;;;;;;;;;;;;;;;5075290;28;19923;-79
2022/10/11 13:32:51;;;;;;;;;;;;;;;;;;5083676;28;19913;-79
2022/10/11 13:35:16;;;;;;;;;;;;;;;;;;5082675;28;19966;-78
2022/10/11 13:37:42;;;;;;;;;;;;;;;;;;5077052;28;19912;-78
2022/10/11 13:40:07;;;;;;;;;;;;;;;;;;5086929;28;19913;-78
2022/10/11 13:42:33;;;;;;;;;;;;;;;;;;5075492;28;19922;-78
2022/10/11 13:44:58;;;;;;;;;;;;;;;;;;5083305;28;19920;-79
2022/10/11 13:47:23;;;;;;;;;;;;;;;;;;5083506;28;20375;-78
2022/10/11 13:49:52;;;;;;;;;;;;;;;;;;5075976;28;19919;-77
2022/10/11 13:52:18;;;;;;;;;;;;;;;;;;5085827;28;19938;-78
2022/10/11 13:54:43;;;;;;;;;;;;;;;;;;5071853;28;20368;-78
2022/10/11 13:57:08;;;;;;;;;;;;;;;;;;5086786;28;20361;-78
2022/10/11 13:59:34;;;;;;;;;;;;;;;;;;5069830;28;19927;-79
2022/10/11 14:01:59;;;;;;;;;;;;;;;;;;5081245;28;19924;-79
2022/10/11 14:04:25;;;;;;;;;;;;;;;;;;5083999;28;20034;-79
2022/10/11 14:06:50;;;;;;;;;;;;;;;;;;5075330;22;19928;-82
2022/10/11 14:09:16;;;;;;;;;;;;;;;;;;5060878;28;19916;-81
2022/10/11 14:11:41;;;;;;;;;;;;;;;;;;5045697;28;19965;-82
2022/10/11 14:14:06;;;;;;;;;;;;;;;;;;5051245;28;19912;-82
2022/10/11 14:16:32;;;;;;;;;;;;;;;;;;5065106;28;19930;-83
2022/10/11 14:18:57;;;;;;;;;;;;;;;;;;5071900;28;19967;-80
2022/10/11 14:21:23;;;;;;;;;;;;;;;;;;5062245;28;20383;-81
2022/10/11 14:23:49;;;;;;;;;;;;;;;;;;5076648;28;19912;-81
2022/10/11 14:26:15;;;;;;;;;;;;;;;;;;5079612;28;20013;-82
2022/10/11 14:28:40;;;;;;;;;;;;;;;;;;5062545;28;19923;-80
2022/10/11 14:31:05;;;;;;;;;;;;;;;;;;5087929;28;19971;-80
2022/10/11 14:33:31;;;;;;;;;;;;;;;;;;5062464;28;19912;-81
2022/10/11 14:35:56;;;;;;;;;;;;;;;;;;5056196;28;20288;-81
2022/10/11 14:38:21;;;;;;;;;;;;;;;;;;5063564;28;20300;-81
2022/10/11 14:40:47;;;;;;;;;;;;;;;;;;5061162;28;19912;-81
2022/10/11 14:43:12;;;;;;;;;;;;;;;;;;5086253;28;20342;-81
2022/10/11 14:45:38;;;;;;;;;;;;;;;;;;5047290;28;20012;-81
2022/10/11 14:48:03;;;;;;;;;;;;;;;;;;5081197;28;20355;-80
2022/10/11 14:50:28;;;;;;;;;;;;;;;;;;5071682;28;20066;-81
2022/10/11 14:52:54;;;;;;;;;;;;;;;;;;5043703;28;20283;-80
2022/10/11 14:55:19;;;;;;;;;;;;;;;;;;5067654;28;19940;-81
2022/10/11 14:57:45;;;;;;;;;;;;;;;;;;5053418;28;20387;-81
2022/10/11 15:00:10;;;;;;;;;;;;;;;;;;5071314;28;20351;-81
2022/10/11 15:02:36;;;;;;;;;;;;;;;;;;5071859;28;20433;-82
2022/10/11 15:05:01;;;;;;;;;;;;;;;;;;5062532;28;19912;-80
2022/10/11 15:07:26;;;;;;;;;;;;;;;;;;5087528;28;19960;-81
2022/10/11 15:09:52;;;;;;;;;;;;;;;;;;5080396;28;20464;-80
2022/10/11 15:12:17;;;;;;;;;;;;;;;;;;5075194;28;19912;-80
2022/10/11 15:14:42;;;;;;;;;;;;;;;;;;5089253;28;19919;-81
2022/10/11 15:17:08;;;;;;;;;;;;;;;;;;5043518;28;19915;-81
2022/10/11 15:19:33;;;;;;;;;;;;;;;;;;5064462;28;20011;-81
2022/10/11 15:22:01;;;;;;;;;;;;;;;;;;5074234;28;20299;-81
2022/10/11 15:24:26;;;;;;;;;;;;;;;;;;5049089;28;19913;-83
2022/10/11 15:26:52;;;;;;;;;;;;;;;;;;5069921;28;19916;-83
2022/10/11 15:29:19;;;;;;;;;;;;;;;;;;5064533;28;20378;-80
2022/10/11 15:31:44;;;;;;;;;;;;;;;;;;5078021;28;19913;-80
2022/10/11 15:34:10;;;;;;;;;;;;;;;;;;5068324;28;19912;-83
2022/10/11 15:36:38;;;;;;;;;;;;;;;;;;5045823;28;20364;-82
2022/10/11 15:39:04;;;;;;;;;;;;;;;;;;5087419;28;19921;-80
2022/10/11 15:41:29;;;;;;;;;;;;;;;;;;5066314;28;19988;-82
2022/10/11 15:43:54;;;;;;;;;;;;;;;;;;5056592;28;20335;-81
2022/10/11 15:46:21;;;;;;;;;;;;;;;;;;5080316;28;19923;-82
2022/10/11 15:48:46;;;;;;;;;;;;;;;;;;5054004;28;19912;-81
2022/10/11 15:51:11;;;;;;;;;;;;;;;;;;5085428;28;19970;-82
2022/10/11 15:53:37;;;;;;;;;;;;;;;;;;5067963;28;20311;-82
2022/10/11 15:56:05;;;;;;;;;;;;;;;;;;5071367;28;20260;-82
2022/10/11 15:58:31;;;;;;;;;;;;;;;;;;5070082;28;20403;-83
2022/10/11 16:00:56;;;;;;;;;;;;;;;;;;5060029;28;20007;-83
2022/10/11 16:03:21;;;;;;;;;;;;;;;;;;5064637;28;20364;-81
2022/10/11 16:05:47;;;;;;;;;;;;;;;;;;5070352;28;19920;-82
2022/10/11 16:08:12;;;;;;;;;;;;;;;;;;5055034;28;19958;-80
2022/10/11 16:10:38;;;;;;;;;;;;;;;;;;5092509;28;19912;-82
2022/10/11 16:13:03;;;;;;;;;;;;;;;;;;5062934;28;21013;-82
2022/10/11 16:15:28;;;;;;;;;;;;;;;;;;5082986;28;19991;-83
2022/10/11 16:17:54;;;;;;;;;;;;;;;;;;5072919;28;19923;-80
2022/10/11 16:20:21;;;;;;;;;;;;;;;;;;5049331;28;19978;-83
2022/10/11 16:22:46;;;;;;;;;;;;;;;;;;5067778;28;19916;-81
2022/10/11 16:25:12;;;;;;;;;;;;;;;;;;5060445;28;19923;-84
2022/10/11 16:27:37;;;;;;;;;;;;;;;;;;5060227;28;19913;-83
2022/10/11 16:30:03;;;;;;;;;;;;;;;;;;5073994;28;19931;-84
2022/10/11 16:32:28;;;;;;;;;;;;;;;;;;5044698;28;20403;-84
2022/10/11 16:34:54;;;;;;;;;;;;;;;;;;5085779;28;20386;-84
2022/10/11 16:37:19;;;;;;;;;;;;;;;;;;5061780;28;20332;-85
2022/10/11 16:39:44;;;;;;;;;;;;;;;;;;5075894;28;19913;-86
2022/10/11 16:42:10;;;;;;;;;;;;;;;;;;5066715;28;19962;-86
2022/10/11 16:44:37;;;;;;;;;;;;;;;;;;5043596;28;19955;-87
2022/10/11 16:47:02;;;;;;;;;;;;;;;;;;5082889;28;19935;-86
2022/10/11 16:49:28;;;;;;;;;;;;;;;;;;5080258;28;20374;-85
2022/10/11 16:51:53;;;;;;;;;;;;;;;;;;5054973;28;19913;-84